sensor_id;sensor_type;location;lat;lon;timestamp;P1;durP1;ratioP1;P2;durP2;ratioP2
583;SDS011;27024;54.068;12.116;2023-03-19T00:01:49;37.10;;;20.70;;
583;SDS011;27024;54.068;12.116;2023-03-19T00:04:35;43.88;;;24.25;;
583;SDS011;27024;54.068;12.116;2023-03-19T00:07:20;42.83;;;22.27;;
583;SDS011;27024;54.068;12.116;2023-03-19T00:10:05;41.03;;;23.63;;
583;SDS011;27024;54.068;12.116;2023-03-19T00:12:51;46.83;;;24.38;;
583;SDS011;27024;54.068;12.116;2023-03-19T00:15:36;45.78;;;22.77;;
583;SDS011;27024;54.068;12.116;2023-03-19T00:18:21;44.75;;;23.70;;
583;SDS011;27024;54.068;12.116;2023-03-19T00:21:07;46.10;;;24.15;;
583;SDS011;27024;54.068;12.116;2023-03-19T00:23:52;43.88;;;25.33;;
583;SDS011;27024;54.068;12.116;2023-03-19T00:26:38;45.13;;;25.15;;
583;SDS011;27024;54.068;12.116;2023-03-19T00:29:23;44.85;;;25.80;;
583;SDS011;27024;54.068;12.116;2023-03-19T00:32:09;44.63;;;25.15;;
583;SDS011;27024;54.068;12.116;2023-03-19T00:34:54;43.42;;;23.42;;
583;SDS011;27024;54.068;12.116;2023-03-19T00:37:39;38.03;;;21.90;;
583;SDS011;27024;54.068;12.116;2023-03-19T00:40:25;40.90;;;21.13;;
583;SDS011;27024;54.068;12.116;2023-03-19T00:43:11;38.28;;;21.67;;
583;SDS011;27024;54.068;12.116;2023-03-19T00:45:56;40.30;;;23.95;;
583;SDS011;27024;54.068;12.116;2023-03-19T00:48:42;40.92;;;23.58;;
583;SDS011;27024;54.068;12.116;2023-03-19T00:51:27;42.05;;;23.10;;
583;SDS011;27024;54.068;12.116;2023-03-19T00:54:12;39.40;;;22.83;;
583;SDS011;27024;54.068;12.116;2023-03-19T00:56:58;41.20;;;23.20;;
583;SDS011;27024;54.068;12.116;2023-03-19T00:59:43;39.15;;;21.52;;
583;SDS011;27024;54.068;12.116;2023-03-19T01:02:29;37.03;;;20.40;;
583;SDS011;27024;54.068;12.116;2023-03-19T01:05:15;33.75;;;21.33;;
583;SDS011;27024;54.068;12.116;2023-03-19T01:08:00;35.70;;;20.63;;
583;SDS011;27024;54.068;12.116;2023-03-19T01:10:46;33.38;;;18.88;;
583;SDS011;27024;54.068;12.116;2023-03-19T01:13:31;34.80;;;20.20;;
583;SDS011;27024;54.068;12.116;2023-03-19T01:16:16;32.67;;;19.42;;
583;SDS011;27024;54.068;12.116;2023-03-19T01:19:02;34.47;;;20.48;;
583;SDS011;27024;54.068;12.116;2023-03-19T01:21:47;33.00;;;19.27;;
583;SDS011;27024;54.068;12.116;2023-03-19T01:24:33;31.15;;;18.30;;
583;SDS011;27024;54.068;12.116;2023-03-19T01:27:19;32.33;;;19.70;;
583;SDS011;27024;54.068;12.116;2023-03-19T01:30:05;30.00;;;19.05;;
583;SDS011;27024;54.068;12.116;2023-03-19T01:32:51;31.45;;;18.70;;
583;SDS011;27024;54.068;12.116;2023-03-19T01:35:37;35.30;;;20.85;;
583;SDS011;27024;54.068;12.116;2023-03-19T01:38:23;35.45;;;20.60;;
583;SDS011;27024;54.068;12.116;2023-03-19T01:41:09;33.35;;;21.48;;
583;SDS011;27024;54.068;12.116;2023-03-19T01:43:54;35.22;;;22.73;;
583;SDS011;27024;54.068;12.116;2023-03-19T01:46:40;35.05;;;22.45;;
583;SDS011;27024;54.068;12.116;2023-03-19T01:49:26;39.15;;;22.63;;
583;SDS011;27024;54.068;12.116;2023-03-19T01:52:12;35.38;;;22.42;;
583;SDS011;27024;54.068;12.116;2023-03-19T01:55:00;35.38;;;21.75;;
583;SDS011;27024;54.068;12.116;2023-03-19T01:57:48;30.85;;;20.20;;
583;SDS011;27024;54.068;12.116;2023-03-19T02:00:34;26.60;;;18.55;;
583;SDS011;27024;54.068;12.116;2023-03-19T02:03:22;30.50;;;19.05;;
583;SDS011;27024;54.068;12.116;2023-03-19T02:06:09;29.38;;;17.80;;
583;SDS011;27024;54.068;12.116;2023-03-19T02:08:56;31.58;;;18.88;;
583;SDS011;27024;54.068;12.116;2023-03-19T02:11:42;31.17;;;20.17;;
583;SDS011;27024;54.068;12.116;2023-03-19T02:14:29;32.30;;;18.92;;
583;SDS011;27024;54.068;12.116;2023-03-19T02:17:14;33.92;;;20.88;;
583;SDS011;27024;54.068;12.116;2023-03-19T02:26:02;34.08;;;21.00;;
583;SDS011;27024;54.068;12.116;2023-03-19T02:28:58;34.80;;;20.95;;
583;SDS011;27024;54.068;12.116;2023-03-19T02:31:44;37.25;;;22.92;;
583;SDS011;27024;54.068;12.116;2023-03-19T02:34:31;36.38;;;22.73;;
583;SDS011;27024;54.068;12.116;2023-03-19T02:37:23;38.17;;;22.58;;
583;SDS011;27024;54.068;12.116;2023-03-19T02:40:14;37.17;;;22.08;;
583;SDS011;27024;54.068;12.116;2023-03-19T02:43:10;33.75;;;22.58;;
583;SDS011;27024;54.068;12.116;2023-03-19T02:45:55;34.08;;;22.58;;
583;SDS011;27024;54.068;12.116;2023-03-19T02:48:40;32.58;;;20.23;;
583;SDS011;27024;54.068;12.116;2023-03-19T02:51:25;28.88;;;19.02;;
583;SDS011;27024;54.068;12.116;2023-03-19T02:54:11;30.75;;;20.58;;
583;SDS011;27024;54.068;12.116;2023-03-19T02:56:56;29.85;;;19.40;;
583;SDS011;27024;54.068;12.116;2023-03-19T02:59:41;29.38;;;19.40;;
583;SDS011;27024;54.068;12.116;2023-03-19T03:02:26;31.67;;;19.38;;
583;SDS011;27024;54.068;12.116;2023-03-19T03:05:12;28.83;;;19.40;;
583;SDS011;27024;54.068;12.116;2023-03-19T03:07:58;28.00;;;19.00;;
583;SDS011;27024;54.068;12.116;2023-03-19T03:10:44;31.83;;;19.73;;
583;SDS011;27024;54.068;12.116;2023-03-19T03:13:29;37.45;;;20.73;;
583;SDS011;27024;54.068;12.116;2023-03-19T03:16:14;31.00;;;21.13;;
583;SDS011;27024;54.068;12.116;2023-03-19T03:19:01;32.20;;;21.27;;
583;SDS011;27024;54.068;12.116;2023-03-19T03:21:46;34.28;;;19.85;;
583;SDS011;27024;54.068;12.116;2023-03-19T03:24:32;33.42;;;20.33;;
583;SDS011;27024;54.068;12.116;2023-03-19T03:27:17;30.30;;;19.58;;
583;SDS011;27024;54.068;12.116;2023-03-19T03:30:03;30.63;;;19.23;;
583;SDS011;27024;54.068;12.116;2023-03-19T03:32:51;30.77;;;20.30;;
583;SDS011;27024;54.068;12.116;2023-03-19T03:35:36;33.58;;;20.38;;
583;SDS011;27024;54.068;12.116;2023-03-19T03:38:22;36.80;;;21.10;;
583;SDS011;27024;54.068;12.116;2023-03-19T03:41:07;32.63;;;19.88;;
583;SDS011;27024;54.068;12.116;2023-03-19T03:43:52;36.05;;;20.92;;
583;SDS011;27024;54.068;12.116;2023-03-19T03:46:37;32.80;;;21.08;;
583;SDS011;27024;54.068;12.116;2023-03-19T03:49:22;32.53;;;21.40;;
583;SDS011;27024;54.068;12.116;2023-03-19T03:52:08;32.75;;;20.05;;
583;SDS011;27024;54.068;12.116;2023-03-19T03:54:53;32.55;;;20.13;;
583;SDS011;27024;54.068;12.116;2023-03-19T03:57:39;29.13;;;18.42;;
583;SDS011;27024;54.068;12.116;2023-03-19T04:00:24;32.55;;;18.25;;
583;SDS011;27024;54.068;12.116;2023-03-19T04:03:10;31.38;;;19.42;;
583;SDS011;27024;54.068;12.116;2023-03-19T04:05:56;32.10;;;18.67;;
583;SDS011;27024;54.068;12.116;2023-03-19T04:08:41;34.58;;;19.25;;
583;SDS011;27024;54.068;12.116;2023-03-19T04:11:27;30.65;;;19.58;;
583;SDS011;27024;54.068;12.116;2023-03-19T04:14:12;32.78;;;19.65;;
583;SDS011;27024;54.068;12.116;2023-03-19T04:16:57;31.35;;;20.13;;
583;SDS011;27024;54.068;12.116;2023-03-19T04:19:42;29.48;;;18.55;;
583;SDS011;27024;54.068;12.116;2023-03-19T04:22:27;30.80;;;19.45;;
583;SDS011;27024;54.068;12.116;2023-03-19T04:25:13;34.88;;;20.52;;
583;SDS011;27024;54.068;12.116;2023-03-19T04:27:58;30.42;;;20.55;;
583;SDS011;27024;54.068;12.116;2023-03-19T04:30:43;34.00;;;21.42;;
583;SDS011;27024;54.068;12.116;2023-03-19T04:33:28;34.50;;;20.98;;
583;SDS011;27024;54.068;12.116;2023-03-19T04:36:15;34.50;;;21.05;;
583;SDS011;27024;54.068;12.116;2023-03-19T04:39:02;34.38;;;21.25;;
583;SDS011;27024;54.068;12.116;2023-03-19T04:41:47;37.47;;;22.95;;
583;SDS011;27024;54.068;12.116;2023-03-19T04:44:32;36.47;;;20.65;;
583;SDS011;27024;54.068;12.116;2023-03-19T04:47:17;36.17;;;20.02;;
583;SDS011;27024;54.068;12.116;2023-03-19T04:50:03;35.58;;;20.58;;
583;SDS011;27024;54.068;12.116;2023-03-19T04:52:50;36.70;;;21.42;;
583;SDS011;27024;54.068;12.116;2023-03-19T04:55:35;33.20;;;20.85;;
583;SDS011;27024;54.068;12.116;2023-03-19T04:58:21;33.38;;;20.35;;
583;SDS011;27024;54.068;12.116;2023-03-19T05:01:06;32.70;;;20.85;;
583;SDS011;27024;54.068;12.116;2023-03-19T05:03:52;32.72;;;20.27;;
583;SDS011;27024;54.068;12.116;2023-03-19T05:06:37;30.48;;;19.40;;
583;SDS011;27024;54.068;12.116;2023-03-19T05:09:23;30.13;;;18.45;;
583;SDS011;27024;54.068;12.116;2023-03-19T05:12:09;35.47;;;19.00;;
583;SDS011;27024;54.068;12.116;2023-03-19T05:14:55;31.75;;;20.70;;
583;SDS011;27024;54.068;12.116;2023-03-19T05:17:41;32.80;;;20.70;;
583;SDS011;27024;54.068;12.116;2023-03-19T05:20:26;34.60;;;20.85;;
583;SDS011;27024;54.068;12.116;2023-03-19T05:23:12;34.22;;;21.88;;
583;SDS011;27024;54.068;12.116;2023-03-19T05:25:58;36.72;;;22.55;;
583;SDS011;27024;54.068;12.116;2023-03-19T05:28:44;37.97;;;22.33;;
583;SDS011;27024;54.068;12.116;2023-03-19T05:31:30;36.85;;;23.05;;
583;SDS011;27024;54.068;12.116;2023-03-19T05:34:15;39.10;;;23.30;;
583;SDS011;27024;54.068;12.116;2023-03-19T05:37:00;38.78;;;22.98;;
583;SDS011;27024;54.068;12.116;2023-03-19T05:39:46;39.53;;;23.23;;
583;SDS011;27024;54.068;12.116;2023-03-19T05:42:31;38.15;;;22.85;;
583;SDS011;27024;54.068;12.116;2023-03-19T05:45:17;45.42;;;24.70;;
583;SDS011;27024;54.068;12.116;2023-03-19T05:48:03;39.25;;;23.10;;
583;SDS011;27024;54.068;12.116;2023-03-19T05:50:48;29.40;;;18.17;;
583;SDS011;27024;54.068;12.116;2023-03-19T05:53:34;31.20;;;18.90;;
583;SDS011;27024;54.068;12.116;2023-03-19T05:56:19;29.08;;;18.25;;
583;SDS011;27024;54.068;12.116;2023-03-19T05:59:05;29.05;;;18.75;;
583;SDS011;27024;54.068;12.116;2023-03-19T06:01:50;35.17;;;19.77;;
583;SDS011;27024;54.068;12.116;2023-03-19T06:04:35;31.33;;;21.23;;
583;SDS011;27024;54.068;12.116;2023-03-19T06:07:20;32.70;;;19.95;;
583;SDS011;27024;54.068;12.116;2023-03-19T06:10:06;36.05;;;20.77;;
583;SDS011;27024;54.068;12.116;2023-03-19T06:12:51;33.13;;;20.95;;
583;SDS011;27024;54.068;12.116;2023-03-19T06:15:37;34.78;;;20.67;;
583;SDS011;27024;54.068;12.116;2023-03-19T06:18:22;34.67;;;21.85;;
583;SDS011;27024;54.068;12.116;2023-03-19T06:21:08;34.70;;;21.55;;
583;SDS011;27024;54.068;12.116;2023-03-19T06:23:53;34.28;;;21.23;;
583;SDS011;27024;54.068;12.116;2023-03-19T06:26:38;41.40;;;23.73;;
583;SDS011;27024;54.068;12.116;2023-03-19T06:29:24;38.53;;;23.20;;
583;SDS011;27024;54.068;12.116;2023-03-19T06:32:09;35.90;;;22.23;;
583;SDS011;27024;54.068;12.116;2023-03-19T06:34:55;39.90;;;23.25;;
583;SDS011;27024;54.068;12.116;2023-03-19T06:37:40;39.30;;;22.80;;
583;SDS011;27024;54.068;12.116;2023-03-19T06:40:25;40.08;;;24.02;;
583;SDS011;27024;54.068;12.116;2023-03-19T06:43:11;37.25;;;23.13;;
583;SDS011;27024;54.068;12.116;2023-03-19T06:45:56;39.70;;;23.50;;
583;SDS011;27024;54.068;12.116;2023-03-19T06:48:42;37.38;;;21.75;;
583;SDS011;27024;54.068;12.116;2023-03-19T06:51:27;38.42;;;23.25;;
583;SDS011;27024;54.068;12.116;2023-03-19T06:54:12;41.75;;;23.30;;
583;SDS011;27024;54.068;12.116;2023-03-19T06:56:58;42.85;;;25.27;;
583;SDS011;27024;54.068;12.116;2023-03-19T06:59:43;41.72;;;24.98;;
583;SDS011;27024;54.068;12.116;2023-03-19T07:02:29;39.03;;;25.15;;
583;SDS011;27024;54.068;12.116;2023-03-19T07:05:15;42.13;;;24.27;;
583;SDS011;27024;54.068;12.116;2023-03-19T07:08:00;39.83;;;23.92;;
583;SDS011;27024;54.068;12.116;2023-03-19T07:10:46;34.15;;;21.77;;
583;SDS011;27024;54.068;12.116;2023-03-19T07:13:32;33.97;;;22.17;;
583;SDS011;27024;54.068;12.116;2023-03-19T07:16:18;36.10;;;22.48;;
583;SDS011;27024;54.068;12.116;2023-03-19T07:19:03;33.03;;;21.58;;
583;SDS011;27024;54.068;12.116;2023-03-19T07:21:48;31.83;;;20.65;;
583;SDS011;27024;54.068;12.116;2023-03-19T07:24:34;33.05;;;21.42;;
583;SDS011;27024;54.068;12.116;2023-03-19T07:27:20;30.92;;;21.20;;
583;SDS011;27024;54.068;12.116;2023-03-19T07:30:06;30.48;;;20.48;;
583;SDS011;27024;54.068;12.116;2023-03-19T07:32:52;24.13;;;14.70;;
583;SDS011;27024;54.068;12.116;2023-03-19T07:35:37;28.33;;;19.70;;
583;SDS011;27024;54.068;12.116;2023-03-19T07:38:22;24.92;;;18.27;;
583;SDS011;27024;54.068;12.116;2023-03-19T07:41:07;26.52;;;17.83;;
583;SDS011;27024;54.068;12.116;2023-03-19T07:43:52;24.83;;;17.60;;
583;SDS011;27024;54.068;12.116;2023-03-19T07:46:38;24.83;;;16.30;;
583;SDS011;27024;54.068;12.116;2023-03-19T07:49:23;24.23;;;16.02;;
583;SDS011;27024;54.068;12.116;2023-03-19T07:52:09;23.13;;;14.55;;
583;SDS011;27024;54.068;12.116;2023-03-19T07:54:54;18.88;;;12.90;;
583;SDS011;27024;54.068;12.116;2023-03-19T07:57:40;20.45;;;14.82;;
583;SDS011;27024;54.068;12.116;2023-03-19T08:00:26;21.63;;;13.70;;
583;SDS011;27024;54.068;12.116;2023-03-19T08:03:11;18.02;;;13.52;;
583;SDS011;27024;54.068;12.116;2023-03-19T08:05:57;18.60;;;13.18;;
583;SDS011;27024;54.068;12.116;2023-03-19T08:08:43;17.45;;;13.18;;
583;SDS011;27024;54.068;12.116;2023-03-19T08:11:28;18.00;;;12.63;;
583;SDS011;27024;54.068;12.116;2023-03-19T08:14:13;18.30;;;12.65;;
583;SDS011;27024;54.068;12.116;2023-03-19T08:17:03;19.02;;;13.10;;
583;SDS011;27024;54.068;12.116;2023-03-19T08:19:49;16.35;;;12.18;;
583;SDS011;27024;54.068;12.116;2023-03-19T08:22:35;17.52;;;11.57;;
583;SDS011;27024;54.068;12.116;2023-03-19T08:25:21;15.75;;;11.48;;
583;SDS011;27024;54.068;12.116;2023-03-19T08:28:06;14.73;;;10.75;;
583;SDS011;27024;54.068;12.116;2023-03-19T08:30:53;14.88;;;11.60;;
583;SDS011;27024;54.068;12.116;2023-03-19T08:33:40;13.45;;;10.60;;
583;SDS011;27024;54.068;12.116;2023-03-19T08:36:25;12.60;;;8.95;;
583;SDS011;27024;54.068;12.116;2023-03-19T08:39:11;10.30;;;8.52;;
583;SDS011;27024;54.068;12.116;2023-03-19T08:41:57;10.20;;;7.55;;
583;SDS011;27024;54.068;12.116;2023-03-19T08:44:42;10.20;;;6.05;;
583;SDS011;27024;54.068;12.116;2023-03-19T08:47:27;8.15;;;6.00;;
583;SDS011;27024;54.068;12.116;2023-03-19T08:50:13;8.95;;;5.80;;
583;SDS011;27024;54.068;12.116;2023-03-19T08:52:59;6.85;;;5.57;;
583;SDS011;27024;54.068;12.116;2023-03-19T08:55:49;6.22;;;5.05;;
583;SDS011;27024;54.068;12.116;2023-03-19T08:58:36;6.63;;;5.10;;
583;SDS011;27024;54.068;12.116;2023-03-19T09:01:21;5.13;;;4.13;;
583;SDS011;27024;54.068;12.116;2023-03-19T09:04:08;6.13;;;3.83;;
583;SDS011;27024;54.068;12.116;2023-03-19T09:06:53;4.50;;;3.58;;
583;SDS011;27024;54.068;12.116;2023-03-19T09:09:40;4.78;;;3.40;;
583;SDS011;27024;54.068;12.116;2023-03-19T09:12:26;3.42;;;2.20;;
583;SDS011;27024;54.068;12.116;2023-03-19T09:15:12;5.15;;;3.72;;
583;SDS011;27024;54.068;12.116;2023-03-19T09:17:57;3.10;;;2.60;;
583;SDS011;27024;54.068;12.116;2023-03-19T09:20:43;3.63;;;2.95;;
583;SDS011;27024;54.068;12.116;2023-03-19T09:23:29;3.55;;;2.83;;
583;SDS011;27024;54.068;12.116;2023-03-19T09:26:14;4.38;;;3.22;;
583;SDS011;27024;54.068;12.116;2023-03-19T09:29:00;4.93;;;2.92;;
583;SDS011;27024;54.068;12.116;2023-03-19T09:31:46;3.97;;;3.10;;
583;SDS011;27024;54.068;12.116;2023-03-19T09:34:31;4.88;;;3.25;;
583;SDS011;27024;54.068;12.116;2023-03-19T09:37:17;4.88;;;3.92;;
583;SDS011;27024;54.068;12.116;2023-03-19T09:40:02;4.32;;;3.47;;
583;SDS011;27024;54.068;12.116;2023-03-19T09:43:07;3.75;;;3.08;;
583;SDS011;27024;54.068;12.116;2023-03-19T09:46:15;4.78;;;3.55;;
583;SDS011;27024;54.068;12.116;2023-03-19T09:49:19;5.43;;;3.75;;
583;SDS011;27024;54.068;12.116;2023-03-19T09:55:08;4.40;;;3.47;;
583;SDS011;27024;54.068;12.116;2023-03-19T09:58:18;4.30;;;3.45;;
583;SDS011;27024;54.068;12.116;2023-03-19T10:01:05;4.72;;;4.20;;
583;SDS011;27024;54.068;12.116;2023-03-19T10:07:23;5.07;;;3.58;;
583;SDS011;27024;54.068;12.116;2023-03-19T10:13:25;3.97;;;3.10;;
583;SDS011;27024;54.068;12.116;2023-03-19T10:16:24;4.97;;;3.95;;
583;SDS011;27024;54.068;12.116;2023-03-19T10:19:12;5.50;;;3.85;;
583;SDS011;27024;54.068;12.116;2023-03-19T10:22:04;4.05;;;3.55;;
583;SDS011;27024;54.068;12.116;2023-03-19T10:24:56;3.75;;;3.45;;
583;SDS011;27024;54.068;12.116;2023-03-19T10:27:42;4.45;;;3.42;;
583;SDS011;27024;54.068;12.116;2023-03-19T10:30:30;5.75;;;2.85;;
583;SDS011;27024;54.068;12.116;2023-03-19T10:33:24;4.20;;;3.15;;
583;SDS011;27024;54.068;12.116;2023-03-19T10:36:16;3.90;;;3.28;;
583;SDS011;27024;54.068;12.116;2023-03-19T10:39:09;4.03;;;3.47;;
583;SDS011;27024;54.068;12.116;2023-03-19T10:45:28;5.78;;;4.05;;
583;SDS011;27024;54.068;12.116;2023-03-19T10:48:16;4.78;;;3.40;;
583;SDS011;27024;54.068;12.116;2023-03-19T10:51:05;3.90;;;3.10;;
583;SDS011;27024;54.068;12.116;2023-03-19T10:53:52;3.55;;;2.80;;
583;SDS011;27024;54.068;12.116;2023-03-19T10:56:39;4.85;;;3.30;;
583;SDS011;27024;54.068;12.116;2023-03-19T10:59:31;6.03;;;3.35;;
583;SDS011;27024;54.068;12.116;2023-03-19T11:02:23;5.85;;;3.50;;
583;SDS011;27024;54.068;12.116;2023-03-19T11:05:22;4.18;;;3.15;;
583;SDS011;27024;54.068;12.116;2023-03-19T11:08:18;5.53;;;3.28;;
583;SDS011;27024;54.068;12.116;2023-03-19T11:11:23;4.80;;;3.22;;
583;SDS011;27024;54.068;12.116;2023-03-19T11:14:30;5.05;;;3.28;;
583;SDS011;27024;54.068;12.116;2023-03-19T11:17:27;4.30;;;2.90;;
583;SDS011;27024;54.068;12.116;2023-03-19T11:23:12;3.92;;;3.22;;
583;SDS011;27024;54.068;12.116;2023-03-19T11:26:00;5.03;;;3.75;;
583;SDS011;27024;54.068;12.116;2023-03-19T11:28:51;4.85;;;3.50;;
583;SDS011;27024;54.068;12.116;2023-03-19T11:31:40;4.82;;;3.53;;
583;SDS011;27024;54.068;12.116;2023-03-19T11:40:30;4.03;;;3.13;;
583;SDS011;27024;54.068;12.116;2023-03-19T11:43:35;3.80;;;3.13;;
583;SDS011;27024;54.068;12.116;2023-03-19T11:46:31;5.20;;;3.38;;
583;SDS011;27024;54.068;12.116;2023-03-19T12:04:29;3.97;;;2.90;;
583;SDS011;27024;54.068;12.116;2023-03-19T12:07:22;4.35;;;2.40;;
583;SDS011;27024;54.068;12.116;2023-03-19T12:13:33;4.00;;;2.97;;
583;SDS011;27024;54.068;12.116;2023-03-19T12:16:26;5.88;;;2.85;;
583;SDS011;27024;54.068;12.116;2023-03-19T12:22:34;4.65;;;2.08;;
583;SDS011;27024;54.068;12.116;2023-03-19T12:28:26;6.82;;;3.03;;
583;SDS011;27024;54.068;12.116;2023-03-19T12:37:12;4.05;;;2.72;;
583;SDS011;27024;54.068;12.116;2023-03-19T12:43:08;5.03;;;3.25;;
583;SDS011;27024;54.068;12.116;2023-03-19T12:46:25;4.13;;;3.05;;
583;SDS011;27024;54.068;12.116;2023-03-19T12:49:17;4.18;;;3.55;;
583;SDS011;27024;54.068;12.116;2023-03-19T12:52:11;4.68;;;3.08;;
583;SDS011;27024;54.068;12.116;2023-03-19T12:58:07;4.90;;;2.75;;
583;SDS011;27024;54.068;12.116;2023-03-19T13:01:02;4.45;;;2.97;;
583;SDS011;27024;54.068;12.116;2023-03-19T13:03:54;4.90;;;3.13;;
583;SDS011;27024;54.068;12.116;2023-03-19T13:06:46;5.10;;;3.35;;
583;SDS011;27024;54.068;12.116;2023-03-19T13:12:56;6.32;;;3.17;;
583;SDS011;27024;54.068;12.116;2023-03-19T13:15:45;4.38;;;2.47;;
583;SDS011;27024;54.068;12.116;2023-03-19T13:21:53;4.78;;;3.40;;
583;SDS011;27024;54.068;12.116;2023-03-19T13:24:42;6.68;;;3.22;;
583;SDS011;27024;54.068;12.116;2023-03-19T13:27:34;6.60;;;3.50;;
583;SDS011;27024;54.068;12.116;2023-03-19T13:30:20;5.15;;;2.97;;
583;SDS011;27024;54.068;12.116;2023-03-19T13:33:12;6.38;;;3.42;;
583;SDS011;27024;54.068;12.116;2023-03-19T13:36:06;5.13;;;3.10;;
583;SDS011;27024;54.068;12.116;2023-03-19T13:38:54;4.22;;;2.70;;
583;SDS011;27024;54.068;12.116;2023-03-19T13:53:17;4.93;;;2.67;;
583;SDS011;27024;54.068;12.116;2023-03-19T13:56:10;5.85;;;2.72;;
583;SDS011;27024;54.068;12.116;2023-03-19T14:01:59;3.60;;;2.85;;
583;SDS011;27024;54.068;12.116;2023-03-19T14:05:07;4.30;;;2.85;;
583;SDS011;27024;54.068;12.116;2023-03-19T14:08:04;4.82;;;3.17;;
583;SDS011;27024;54.068;12.116;2023-03-19T14:11:02;5.63;;;2.75;;
583;SDS011;27024;54.068;12.116;2023-03-19T14:13:50;5.32;;;3.15;;
583;SDS011;27024;54.068;12.116;2023-03-19T14:16:41;6.18;;;3.05;;
583;SDS011;27024;54.068;12.116;2023-03-19T14:19:30;4.78;;;3.10;;
583;SDS011;27024;54.068;12.116;2023-03-19T14:22:38;5.40;;;2.70;;
583;SDS011;27024;54.068;12.116;2023-03-19T14:25:25;6.43;;;3.10;;
583;SDS011;27024;54.068;12.116;2023-03-19T14:28:14;5.53;;;2.80;;
583;SDS011;27024;54.068;12.116;2023-03-19T14:31:02;4.72;;;2.67;;
583;SDS011;27024;54.068;12.116;2023-03-19T14:33:51;5.28;;;2.67;;
583;SDS011;27024;54.068;12.116;2023-03-19T14:36:44;5.05;;;2.80;;
583;SDS011;27024;54.068;12.116;2023-03-19T14:39:42;5.80;;;3.58;;
583;SDS011;27024;54.068;12.116;2023-03-19T14:51:56;4.65;;;2.15;;
583;SDS011;27024;54.068;12.116;2023-03-19T14:54:58;3.85;;;1.60;;
583;SDS011;27024;54.068;12.116;2023-03-19T14:57:44;5.15;;;2.33;;
583;SDS011;27024;54.068;12.116;2023-03-19T15:00:38;5.35;;;3.50;;
583;SDS011;27024;54.068;12.116;2023-03-19T15:03:33;7.35;;;4.53;;
583;SDS011;27024;54.068;12.116;2023-03-19T15:06:21;6.82;;;4.25;;
583;SDS011;27024;54.068;12.116;2023-03-19T15:09:15;6.00;;;4.50;;
583;SDS011;27024;54.068;12.116;2023-03-19T15:18:24;8.88;;;5.57;;
583;SDS011;27024;54.068;12.116;2023-03-19T15:21:10;6.32;;;5.30;;
583;SDS011;27024;54.068;12.116;2023-03-19T15:23:56;7.68;;;5.57;;
583;SDS011;27024;54.068;12.116;2023-03-19T15:26:42;7.60;;;6.05;;
583;SDS011;27024;54.068;12.116;2023-03-19T15:29:33;8.43;;;5.57;;
583;SDS011;27024;54.068;12.116;2023-03-19T15:32:38;10.05;;;5.60;;
583;SDS011;27024;54.068;12.116;2023-03-19T15:35:46;8.57;;;5.40;;
583;SDS011;27024;54.068;12.116;2023-03-19T15:38:37;9.32;;;6.25;;
583;SDS011;27024;54.068;12.116;2023-03-19T15:41:27;8.02;;;6.38;;
583;SDS011;27024;54.068;12.116;2023-03-19T15:44:17;9.27;;;6.85;;
583;SDS011;27024;54.068;12.116;2023-03-19T15:47:06;7.93;;;5.90;;
583;SDS011;27024;54.068;12.116;2023-03-19T15:52:49;8.25;;;6.32;;
583;SDS011;27024;54.068;12.116;2023-03-19T15:55:37;9.32;;;6.40;;
583;SDS011;27024;54.068;12.116;2023-03-19T15:58:24;9.70;;;6.63;;
583;SDS011;27024;54.068;12.116;2023-03-19T16:01:12;8.07;;;6.53;;
583;SDS011;27024;54.068;12.116;2023-03-19T16:04:04;10.90;;;6.10;;
583;SDS011;27024;54.068;12.116;2023-03-19T16:06:51;8.32;;;6.10;;
583;SDS011;27024;54.068;12.116;2023-03-19T16:09:37;9.43;;;6.20;;
583;SDS011;27024;54.068;12.116;2023-03-19T16:12:33;10.25;;;6.45;;
583;SDS011;27024;54.068;12.116;2023-03-19T16:15:27;9.68;;;5.82;;
583;SDS011;27024;54.068;12.116;2023-03-19T16:21:07;9.27;;;5.90;;
583;SDS011;27024;54.068;12.116;2023-03-19T16:27:12;9.07;;;5.30;;
583;SDS011;27024;54.068;12.116;2023-03-19T16:30:00;9.90;;;6.70;;
583;SDS011;27024;54.068;12.116;2023-03-19T16:32:56;9.68;;;6.50;;
583;SDS011;27024;54.068;12.116;2023-03-19T16:35:50;9.77;;;5.93;;
583;SDS011;27024;54.068;12.116;2023-03-19T16:38:41;8.60;;;5.47;;
583;SDS011;27024;54.068;12.116;2023-03-19T16:41:30;10.38;;;6.55;;
583;SDS011;27024;54.068;12.116;2023-03-19T16:44:16;13.32;;;8.60;;
583;SDS011;27024;54.068;12.116;2023-03-19T16:47:04;11.60;;;8.18;;
583;SDS011;27024;54.068;12.116;2023-03-19T16:49:59;11.70;;;7.45;;
583;SDS011;27024;54.068;12.116;2023-03-19T16:52:45;10.38;;;6.20;;
583;SDS011;27024;54.068;12.116;2023-03-19T16:55:33;11.90;;;7.07;;
583;SDS011;27024;54.068;12.116;2023-03-19T16:58:32;10.65;;;6.43;;
583;SDS011;27024;54.068;12.116;2023-03-19T17:01:21;11.02;;;7.78;;
583;SDS011;27024;54.068;12.116;2023-03-19T17:04:10;11.27;;;6.53;;
583;SDS011;27024;54.068;12.116;2023-03-19T17:07:01;11.98;;;7.47;;
583;SDS011;27024;54.068;12.116;2023-03-19T17:09:46;10.27;;;7.32;;
583;SDS011;27024;54.068;12.116;2023-03-19T17:12:31;10.52;;;6.95;;
583;SDS011;27024;54.068;12.116;2023-03-19T17:18:11;13.38;;;7.60;;
583;SDS011;27024;54.068;12.116;2023-03-19T17:21:01;12.02;;;8.18;;
583;SDS011;27024;54.068;12.116;2023-03-19T17:23:50;16.00;;;9.07;;
583;SDS011;27024;54.068;12.116;2023-03-19T17:26:35;12.27;;;7.43;;
583;SDS011;27024;54.068;12.116;2023-03-19T17:29:21;14.35;;;8.95;;
583;SDS011;27024;54.068;12.116;2023-03-19T17:32:12;11.60;;;8.15;;
583;SDS011;27024;54.068;12.116;2023-03-19T17:35:01;11.23;;;7.95;;
583;SDS011;27024;54.068;12.116;2023-03-19T17:37:47;13.25;;;9.80;;
583;SDS011;27024;54.068;12.116;2023-03-19T17:40:34;14.05;;;8.32;;
583;SDS011;27024;54.068;12.116;2023-03-19T17:43:21;13.38;;;8.45;;
583;SDS011;27024;54.068;12.116;2023-03-19T17:46:08;13.38;;;8.48;;
583;SDS011;27024;54.068;12.116;2023-03-19T17:48:59;15.65;;;9.40;;
583;SDS011;27024;54.068;12.116;2023-03-19T17:51:45;14.05;;;8.85;;
583;SDS011;27024;54.068;12.116;2023-03-19T17:54:30;13.73;;;9.60;;
583;SDS011;27024;54.068;12.116;2023-03-19T17:57:15;12.98;;;9.82;;
583;SDS011;27024;54.068;12.116;2023-03-19T18:00:02;16.77;;;10.48;;
583;SDS011;27024;54.068;12.116;2023-03-19T18:02:48;15.23;;;10.52;;
583;SDS011;27024;54.068;12.116;2023-03-19T18:05:35;17.33;;;11.15;;
583;SDS011;27024;54.068;12.116;2023-03-19T18:08:20;16.80;;;11.18;;
583;SDS011;27024;54.068;12.116;2023-03-19T18:11:09;19.88;;;12.52;;
583;SDS011;27024;54.068;12.116;2023-03-19T18:13:54;18.55;;;11.55;;
583;SDS011;27024;54.068;12.116;2023-03-19T18:16:40;19.52;;;13.32;;
583;SDS011;27024;54.068;12.116;2023-03-19T18:22:16;20.42;;;12.20;;
583;SDS011;27024;54.068;12.116;2023-03-19T18:25:03;15.98;;;10.75;;
583;SDS011;27024;54.068;12.116;2023-03-19T18:27:48;16.45;;;10.70;;
583;SDS011;27024;54.068;12.116;2023-03-19T18:30:35;15.73;;;9.88;;
583;SDS011;27024;54.068;12.116;2023-03-19T18:33:24;15.80;;;10.18;;
583;SDS011;27024;54.068;12.116;2023-03-19T18:36:19;17.52;;;10.02;;
583;SDS011;27024;54.068;12.116;2023-03-19T18:39:11;15.77;;;9.77;;
583;SDS011;27024;54.068;12.116;2023-03-19T18:42:02;17.63;;;11.30;;
583;SDS011;27024;54.068;12.116;2023-03-19T18:44:47;17.35;;;11.40;;
583;SDS011;27024;54.068;12.116;2023-03-19T18:47:32;16.77;;;12.57;;